createdAt,value
2023-04-26T00:00:21.999Z,95.080566
2023-04-26T00:01:31.718Z,94.873047
2023-04-26T00:02:41.467Z,95.080566
2023-04-26T00:03:50.498Z,94.976807
2023-04-26T00:04:59.993Z,94.830322
2023-04-26T00:06:09.605Z,94.622803
2023-04-26T00:07:17.337Z,94.458008
2023-04-26T00:08:27.064Z,94.873047
2023-04-26T00:09:35.803Z,95.080566
2023-04-26T00:10:44.543Z,95.080566
2023-04-26T00:11:54.211Z,95.178223
2023-04-26T00:13:02.891Z,94.976807
2023-04-26T00:14:12.653Z,94.726562
2023-04-26T00:15:21.337Z,94.873047
2023-04-26T00:16:30.027Z,95.080566
2023-04-26T00:17:39.676Z,94.976807
2023-04-26T00:18:48.340Z,94.360352
2023-04-26T00:19:58.048Z,94.873047
2023-04-26T00:21:06.730Z,94.873047
2023-04-26T00:22:15.455Z,95.135498
2023-04-26T00:23:25.190Z,95.135498
2023-04-26T00:24:32.861Z,94.873047
2023-04-26T00:25:42.566Z,95.635986
2023-04-26T00:26:52.316Z,95.898438
2023-04-26T00:28:02.057Z,95.697021
2023-04-26T00:29:10.831Z,95.800781
2023-04-26T00:30:20.519Z,95.697021
2023-04-26T00:31:29.211Z,95.281982
2023-04-26T00:32:38.931Z,94.458008
2023-04-26T00:33:48.676Z,94.561768
2023-04-26T00:34:58.315Z,94.360352
2023-04-26T00:36:08.022Z,94.256592
2023-04-26T00:37:16.695Z,94.458008
2023-04-26T00:38:25.448Z,93.841553
2023-04-26T00:39:33.136Z,94.256592
2023-04-26T00:40:42.768Z,94.049072
2023-04-26T00:41:52.467Z,94.152832
2023-04-26T00:43:01.196Z,94.458008
2023-04-26T00:44:08.909Z,94.195557
2023-04-26T00:45:18.620Z,94.665527
2023-04-26T00:46:28.296Z,94.458008
2023-04-26T00:47:37.043Z,94.360352
2023-04-26T00:48:46.710Z,94.561768
2023-04-26T00:49:56.405Z,94.769287
2023-04-26T00:51:07.118Z,94.665527
2023-04-26T00:52:15.786Z,94.665527
2023-04-26T00:53:24.520Z,94.769287
2023-04-26T00:54:34.347Z,94.665527
2023-04-26T00:55:43.047Z,94.561768
2023-04-26T00:56:51.712Z,94.256592
2023-04-26T00:58:00.486Z,94.091797
2023-04-26T00:59:09.221Z,94.812012
2023-04-26T01:00:18.939Z,94.769287
2023-04-26T01:01:27.688Z,94.403076
2023-04-26T01:02:36.446Z,95.019531
2023-04-26T01:03:46.213Z,94.506836
2023-04-26T01:04:55.737Z,94.812012
2023-04-26T01:06:05.505Z,94.812012
2023-04-26T01:07:15.198Z,94.604492
2023-04-26T01:08:23.898Z,94.604492
2023-04-26T01:09:33.581Z,94.195557
2023-04-26T01:10:42.334Z,94.604492
2023-04-26T01:11:52.025Z,94.238281
2023-04-26T01:13:00.749Z,94.65332
2023-04-26T01:14:09.437Z,94.708252
2023-04-26T01:15:18.105Z,94.708252
2023-04-26T01:16:27.822Z,94.915771
2023-04-26T01:17:35.489Z,95.019531
2023-04-26T01:18:45.198Z,94.915771
2023-04-26T01:19:54.894Z,94.812012
2023-04-26T01:21:04.599Z,94.915771
2023-04-26T01:22:14.328Z,94.604492
2023-04-26T01:23:24.001Z,95.123291
2023-04-26T01:24:32.721Z,94.812012
2023-04-26T01:25:42.411Z,94.604492
2023-04-26T01:26:51.152Z,95.062256
2023-04-26T01:27:59.864Z,95.062256
2023-04-26T01:29:09.568Z,95.269775
2023-04-26T01:30:18.248Z,95.373535
2023-04-26T01:31:28.017Z,95.428467
2023-04-26T01:32:37.790Z,95.062256
2023-04-26T01:33:47.520Z,95.227051
2023-04-26T01:34:57.184Z,95.330811
2023-04-26T01:36:05.906Z,95.330811
2023-04-26T01:37:15.656Z,95.123291
2023-04-26T01:38:25.371Z,94.65332
2023-04-26T01:39:34.089Z,94.549561
2023-04-26T01:40:42.826Z,94.65332
2023-04-26T01:41:51.515Z,94.854736
2023-04-26T01:43:00.183Z,94.958496
2023-04-26T01:44:09.922Z,95.166016
2023-04-26T01:45:17.649Z,94.854736
2023-04-26T01:46:26.365Z,94.445801
2023-04-26T01:47:36.156Z,94.854736
2023-04-26T01:48:44.965Z,94.708252
2023-04-26T01:49:53.705Z,94.342041
2023-04-26T01:51:02.430Z,94.854736
2023-04-26T01:52:12.152Z,94.134521
2023-04-26T01:53:21.927Z,94.238281
2023-04-26T01:54:30.757Z,94.549561
2023-04-26T01:55:39.414Z,94.65332
2023-04-26T01:56:49.153Z,94.445801
2023-04-26T01:57:58.892Z,94.75708
2023-04-26T01:59:07.678Z,94.65332
2023-04-26T02:00:16.413Z,94.854736
2023-04-26T02:01:26.131Z,94.75708
2023-04-26T02:02:35.882Z,94.65332
2023-04-26T02:03:43.590Z,94.445801
2023-04-26T02:04:52.266Z,94.281006
2023-04-26T02:06:00.963Z,94.488525
2023-04-26T02:07:10.640Z,94.592285
2023-04-26T02:08:20.328Z,94.903564
2023-04-26T02:09:30.058Z,94.592285
2023-04-26T02:10:39.866Z,94.799805
2023-04-26T02:11:49.526Z,94.903564
2023-04-26T02:12:58.220Z,94.799805
2023-04-26T02:14:07.956Z,94.75708
2023-04-26T02:15:17.647Z,94.226074
2023-04-26T02:16:26.354Z,94.63501
2023-04-26T02:17:35.044Z,94.903564
2023-04-26T02:18:43.789Z,94.903564
2023-04-26T02:19:52.578Z,95.050049
2023-04-26T02:21:03.251Z,95.050049
2023-04-26T02:22:11.958Z,95.251465
2023-04-26T02:23:19.698Z,94.842529
2023-04-26T02:24:29.403Z,94.946289
2023-04-26T02:25:39.101Z,95.153809
2023-04-26T02:26:48.874Z,94.842529
2023-04-26T02:27:58.603Z,94.73877
2023-04-26T02:29:07.313Z,94.842529
2023-04-26T02:30:17.265Z,95.153809
2023-04-26T02:31:25.994Z,95.153809
2023-04-26T02:32:34.814Z,95.153809
2023-04-26T02:33:44.528Z,94.946289
2023-04-26T02:34:54.272Z,95.251465
2023-04-26T02:36:03.999Z,94.946289
2023-04-26T02:37:13.715Z,95.050049
2023-04-26T02:38:23.375Z,95.251465
2023-04-26T02:39:33.085Z,94.946289
2023-04-26T02:40:42.826Z,94.842529
2023-04-26T02:41:51.564Z,95.050049
2023-04-26T02:43:01.348Z,94.842529
2023-04-26T02:44:10.999Z,94.946289
2023-04-26T02:45:20.837Z,94.946289
2023-04-26T02:46:29.560Z,94.677734
2023-04-26T02:47:38.250Z,95.300293
2023-04-26T02:48:47.968Z,95.501709
2023-04-26T02:49:55.719Z,95.501709
2023-04-26T02:51:03.406Z,95.458984
2023-04-26T02:52:13.127Z,94.885254
2023-04-26T02:53:22.907Z,95.092773
2023-04-26T02:54:32.356Z,95.092773
2023-04-26T02:55:41.025Z,95.404053
2023-04-26T02:56:50.745Z,95.092773
2023-04-26T02:58:00.425Z,94.989014
2023-04-26T02:59:08.121Z,95.300293
2023-04-26T03:00:16.887Z,94.989014
2023-04-26T03:01:26.607Z,95.239258
2023-04-26T03:02:36.474Z,95.404053
2023-04-26T03:03:46.069Z,95.196533
2023-04-26T03:04:54.684Z,95.092773
2023-04-26T03:06:03.397Z,94.824219
2023-04-26T03:07:13.082Z,94.824219
2023-04-26T03:08:21.803Z,95.031738
2023-04-26T03:09:31.585Z,95.135498
2023-04-26T03:10:40.296Z,95.031738
2023-04-26T03:11:50.257Z,95.446777
2023-04-26T03:12:58.735Z,94.927979
2023-04-26T03:14:07.453Z,95.239258
2023-04-26T03:15:16.182Z,94.885254
2023-04-26T03:16:25.984Z,94.927979
2023-04-26T03:17:35.750Z,94.781494
2023-04-26T03:18:44.423Z,94.824219
2023-04-26T03:19:53.136Z,95.092773
2023-04-26T03:21:02.833Z,94.781494
2023-04-26T03:22:12.520Z,94.927979
2023-04-26T03:23:22.212Z,95.092773
2023-04-26T03:24:31.954Z,95.031738
2023-04-26T03:25:41.632Z,94.781494
2023-04-26T03:26:51.397Z,94.989014
2023-04-26T03:28:01.071Z,94.824219
2023-04-26T03:29:10.835Z,94.824219
2023-04-26T03:30:19.571Z,95.300293
2023-04-26T03:31:29.254Z,94.781494
2023-04-26T03:32:38.994Z,94.677734
2023-04-26T03:33:47.683Z,94.372559
2023-04-26T03:34:56.646Z,94.677734
2023-04-26T03:36:06.345Z,94.372559
2023-04-26T03:37:15.093Z,94.470215
2023-04-26T03:38:24.748Z,94.104004
2023-04-26T03:39:33.463Z,94.519043
2023-04-26T03:40:42.182Z,94.622803
2023-04-26T03:41:51.978Z,94.927979
2023-04-26T03:43:01.703Z,94.781494
2023-04-26T03:44:10.393Z,94.165039
2023-04-26T03:45:20.234Z,94.677734
2023-04-26T03:46:29.003Z,94.268799
2023-04-26T03:47:38.595Z,93.64624
2023-04-26T03:48:47.302Z,93.54248
2023-04-26T03:49:56.986Z,94.165039
2023-04-26T03:51:06.685Z,94.061279
2023-04-26T03:52:15.400Z,93.64624
2023-04-26T03:53:23.058Z,94.165039
2023-04-26T03:54:32.839Z,93.95752
2023-04-26T03:55:42.512Z,94.470215
2023-04-26T03:56:51.282Z,94.061279
2023-04-26T03:58:00.968Z,94.677734
2023-04-26T03:59:10.654Z,94.268799
2023-04-26T04:00:20.440Z,94.372559
2023-04-26T04:01:29.113Z,94.573975
2023-04-26T04:02:38.031Z,93.95752
2023-04-26T04:03:47.735Z,94.519043
2023-04-26T04:04:56.432Z,94.927979
2023-04-26T04:06:04.973Z,94.989014
2023-04-26T04:07:13.705Z,94.781494
2023-04-26T04:08:22.470Z,94.677734
2023-04-26T04:09:31.263Z,94.677734
2023-04-26T04:10:40.987Z,94.573975
2023-04-26T04:11:49.666Z,94.927979
2023-04-26T04:12:59.361Z,94.573975
2023-04-26T04:14:08.065Z,94.927979
2023-04-26T04:15:16.826Z,94.927979
2023-04-26T04:16:26.643Z,95.135498
2023-04-26T04:17:38.289Z,95.196533
2023-04-26T04:18:44.933Z,94.622803
2023-04-26T04:19:53.587Z,95.135498
2023-04-26T04:21:02.263Z,95.092773
2023-04-26T04:22:12.919Z,95.196533
2023-04-26T04:23:21.624Z,94.470215
2023-04-26T04:24:30.656Z,94.842529
2023-04-26T04:25:39.985Z,94.32373
2023-04-26T04:26:48.671Z,94.63501
2023-04-26T04:27:58.386Z,94.32373
2023-04-26T04:29:06.051Z,94.32373
2023-04-26T04:30:14.794Z,94.63501
2023-04-26T04:31:23.485Z,94.63501
2023-04-26T04:32:32.176Z,94.122314
2023-04-26T04:33:41.906Z,94.63501
2023-04-26T04:34:51.623Z,94.73877
2023-04-26T04:36:01.333Z,94.63501
2023-04-26T04:37:11.087Z,94.677734
2023-04-26T04:38:19.791Z,95.196533
2023-04-26T04:39:28.494Z,95.092773
2023-04-26T04:40:39.205Z,94.842529
2023-04-26T04:41:48.955Z,94.573975
2023-04-26T04:42:58.622Z,94.885254
2023-04-26T04:44:07.336Z,95.050049
2023-04-26T04:45:17.038Z,94.63501
2023-04-26T04:46:26.823Z,95.050049
2023-04-26T04:47:36.536Z,94.989014
2023-04-26T04:48:45.178Z,94.946289
2023-04-26T04:49:54.935Z,94.781494
2023-04-26T04:51:04.633Z,95.092773
2023-04-26T04:52:13.321Z,95.404053
2023-04-26T04:53:24.061Z,95.300293
2023-04-26T04:54:33.760Z,95.196533
2023-04-26T04:55:43.513Z,94.946289
2023-04-26T04:56:53.210Z,94.946289
2023-04-26T04:58:01.869Z,94.842529
2023-04-26T04:59:11.541Z,94.63501
2023-04-26T05:00:20.213Z,94.63501
2023-04-26T05:01:29.009Z,95.050049
2023-04-26T05:02:37.816Z,94.989014
2023-04-26T05:03:47.444Z,95.050049
2023-04-26T05:04:57.088Z,94.946289
2023-04-26T05:06:04.812Z,94.946289
2023-04-26T05:07:12.432Z,94.63501
2023-04-26T05:08:22.106Z,94.73877
2023-04-26T05:09:30.762Z,94.42749
2023-04-26T05:10:39.530Z,94.696045
2023-04-26T05:11:49.215Z,94.42749
2023-04-26T05:12:57.923Z,94.53125
2023-04-26T05:14:06.618Z,94.73877
2023-04-26T05:15:16.307Z,94.73877
2023-04-26T05:16:25.022Z,94.63501
2023-04-26T05:17:34.691Z,95.001221
2023-04-26T05:18:44.345Z,94.799805
2023-04-26T05:19:53.994Z,94.799805
2023-04-26T05:21:03.683Z,94.75708
2023-04-26T05:22:11.428Z,94.177246
2023-04-26T05:23:20.073Z,93.87207
2023-04-26T05:24:29.769Z,94.342041
2023-04-26T05:25:39.521Z,94.342041
2023-04-26T05:26:48.204Z,94.238281
2023-04-26T05:27:57.894Z,93.829346
2023-04-26T05:29:07.663Z,93.414307
2023-04-26T05:30:17.302Z,93.829346
2023-04-26T05:31:26.026Z,93.414307
2023-04-26T05:32:33.728Z,93.560791
2023-04-26T05:33:43.390Z,93.310547
2023-04-26T05:34:53.061Z,93.725586
2023-04-26T05:36:01.790Z,93.518066
2023-04-26T05:37:11.460Z,93.414307
2023-04-26T05:38:19.285Z,93.109131
2023-04-26T05:39:28.865Z,93.267822
2023-04-26T05:40:36.611Z,93.060303
2023-04-26T05:41:45.292Z,93.005371
2023-04-26T05:42:54.982Z,93.206787
2023-04-26T05:44:03.725Z,93.518066
2023-04-26T05:45:12.399Z,93.682861
2023-04-26T05:46:21.165Z,93.164062
2023-04-26T05:47:29.840Z,93.371582
2023-04-26T05:48:39.477Z,93.017578
2023-04-26T05:49:48.159Z,93.017578
2023-04-26T05:50:57.898Z,92.858887
2023-04-26T05:52:07.545Z,92.651367
2023-04-26T05:53:17.249Z,91.870117
2023-04-26T05:54:26.978Z,92.486572
2023-04-26T05:55:36.672Z,91.973877
2023-04-26T05:56:45.354Z,92.382812
2023-04-26T05:57:55.048Z,92.590332
2023-04-26T05:59:03.691Z,92.443848
2023-04-26T06:00:12.363Z,92.034912
2023-04-26T06:01:21.066Z,91.931152
2023-04-26T06:02:30.823Z,92.138672
2023-04-26T06:03:39.547Z,92.242432
2023-04-26T06:04:49.157Z,92.034912
2023-04-26T06:05:58.948Z,92.034912
2023-04-26T06:07:08.509Z,91.619873
2023-04-26T06:08:17.290Z,92.138672
2023-04-26T06:09:26.968Z,92.443848
2023-04-26T06:10:36.821Z,92.608643
2023-04-26T06:11:46.451Z,90.692139
2023-04-26T06:12:56.208Z,90.899658
2023-04-26T06:14:06.176Z,91.168213
2023-04-26T06:15:16.504Z,91.168213
2023-04-26T06:16:26.218Z,91.473389
2023-04-26T06:17:33.942Z,90.655518
2023-04-26T06:18:41.601Z,90.655518
2023-04-26T06:19:51.363Z,90.447998
2023-04-26T06:20:59.035Z,90.344238
2023-04-26T06:22:08.768Z,90.136719
2023-04-26T06:23:18.561Z,90.551758
2023-04-26T06:24:27.154Z,90.753174
2023-04-26T06:25:36.837Z,90.917969
2023-04-26T06:26:45.558Z,89.788818
2023-04-26T06:27:53.197Z,89.624023
2023-04-26T06:29:02.898Z,89.111328
2023-04-26T06:30:11.591Z,89.172363
2023-04-26T06:31:20.316Z,89.172363
2023-04-26T06:32:30.041Z,89.379883
2023-04-26T06:33:38.741Z,89.477539
2023-04-26T06:34:48.416Z,89.379883
2023-04-26T06:35:56.179Z,89.440918
2023-04-26T06:37:04.891Z,89.477539
2023-04-26T06:38:14.572Z,88.861084
2023-04-26T06:39:23.257Z,88.903809
2023-04-26T06:40:31.928Z,90.136719
2023-04-26T06:41:41.826Z,90.509033
2023-04-26T06:42:51.582Z,90.509033
2023-04-26T06:44:01.376Z,90.570068
2023-04-26T06:45:09.918Z,90.466309
2023-04-26T06:46:17.643Z,90.057373
2023-04-26T06:47:27.332Z,89.807129
2023-04-26T06:48:35.943Z,90.118408
2023-04-26T06:49:44.649Z,90.216064
2023-04-26T06:50:52.334Z,90.014648
2023-04-26T06:52:01.164Z,89.910889
2023-04-26T06:53:10.748Z,90.216064
2023-04-26T06:54:18.434Z,90.075684
2023-04-26T06:55:28.169Z,89.398193
2023-04-26T06:56:38.908Z,88.720703
2023-04-26T06:57:48.601Z,89.807129
2023-04-26T06:58:57.311Z,89.660645
2023-04-26T07:00:06.993Z,88.592529
2023-04-26T07:01:15.705Z,86.273193
2023-04-26T07:02:25.553Z,87.237549
2023-04-26T07:03:33.157Z,87.817383
2023-04-26T07:04:43.047Z,88.079834
2023-04-26T07:05:51.551Z,87.365723
2023-04-26T07:07:00.105Z,86.169434
2023-04-26T07:08:08.805Z,86.315918
2023-04-26T07:09:18.487Z,86.785889
2023-04-26T07:10:27.532Z,86.273193
2023-04-26T07:11:35.918Z,85.656738
2023-04-26T07:12:45.652Z,84.735107
2023-04-26T07:13:55.503Z,83.605957
2023-04-26T07:15:05.235Z,84.075928
2023-04-26T07:16:14.731Z,82.946777
2023-04-26T07:17:24.422Z,83.770752
2023-04-26T07:18:34.068Z,83.831787
2023-04-26T07:19:42.747Z,82.666016
2023-04-26T07:20:51.477Z,82.830811
2023-04-26T07:22:01.210Z,82.385254
2023-04-26T07:23:09.924Z,81.835938
2023-04-26T07:24:19.605Z,79.718018
2023-04-26T07:25:29.335Z,80.029297
2023-04-26T07:26:39.031Z,81.115723
2023-04-26T07:27:48.731Z,79.785156
2023-04-26T07:28:56.457Z,77.807617
2023-04-26T07:30:05.138Z,80.267334
2023-04-26T07:31:14.970Z,79.858398
2023-04-26T07:32:23.683Z,79.89502
2023-04-26T07:33:32.424Z,80.578613
2023-04-26T07:34:41.048Z,79.449463
2023-04-26T07:35:49.696Z,79.040527
2023-04-26T07:36:59.397Z,79.754639
2023-04-26T07:38:08.071Z,79.589844
2023-04-26T07:39:16.754Z,80.102539
2023-04-26T07:40:26.437Z,79.180908
2023-04-26T07:41:36.151Z,79.797363
2023-04-26T07:42:44.880Z,80.267334
2023-04-26T07:43:53.822Z,80.371094
2023-04-26T07:45:02.281Z,79.345703
2023-04-26T07:46:12.003Z,78.424072
2023-04-26T07:47:19.680Z,78.527832
2023-04-26T07:48:28.317Z,77.978516
2023-04-26T07:49:38.043Z,77.911377
2023-04-26T07:50:47.752Z,78.24707
2023-04-26T07:51:56.449Z,78.009033
2023-04-26T07:53:05.121Z,77.191162
2023-04-26T07:54:13.778Z,74.835205
2023-04-26T07:55:23.443Z,75.653076
2023-04-26T07:56:31.132Z,77.526855
2023-04-26T07:57:39.849Z,75.408936
2023-04-26T07:58:49.530Z,74.725342
2023-04-26T07:59:58.206Z,72.106934
2023-04-26T08:01:06.917Z,71.185303
2023-04-26T08:02:17.693Z,72.070312
2023-04-26T08:03:28.706Z,73.571777
2023-04-26T08:04:38.170Z,74.151611
2023-04-26T08:05:47.002Z,73.162842
2023-04-26T08:06:55.475Z,73.504639
2023-04-26T08:08:05.168Z,72.924805
2023-04-26T08:09:13.834Z,74.627686
2023-04-26T08:10:23.518Z,73.468018
2023-04-26T08:11:33.269Z,72.241211
2023-04-26T08:12:40.955Z,72.44873
2023-04-26T08:13:50.979Z,71.697998
2023-04-26T08:14:59.416Z,71.087646
2023-04-26T08:16:08.121Z,69.927979
2023-04-26T08:17:17.812Z,70.574951
2023-04-26T08:18:27.513Z,71.972656
2023-04-26T08:19:36.242Z,72.210693
2023-04-26T08:20:45.904Z,72.991943
2023-04-26T08:21:56.624Z,74.798584
2023-04-26T08:23:06.402Z,73.809814
2023-04-26T08:24:15.046Z,72.650146
2023-04-26T08:25:22.730Z,73.364258
2023-04-26T08:26:32.426Z,72.821045
2023-04-26T08:27:42.149Z,71.868896
2023-04-26T08:28:50.830Z,72.106934
2023-04-26T08:30:00.516Z,72.583008
2023-04-26T08:31:10.361Z,72.955322
2023-04-26T08:32:20.945Z,73.266602
2023-04-26T08:33:30.736Z,71.5271
2023-04-26T08:34:40.437Z,71.563721
2023-04-26T08:35:50.098Z,70.507812
2023-04-26T08:36:58.756Z,71.765137
2023-04-26T08:38:07.437Z,70.404053
2023-04-26T08:39:17.121Z,70.440674
2023-04-26T08:40:25.805Z,69.665527
2023-04-26T08:41:35.499Z,66.845703
2023-04-26T08:42:45.182Z,67.285156
2023-04-26T08:43:54.018Z,67.993164
2023-04-26T08:45:03.516Z,68.267822
2023-04-26T08:46:13.194Z,67.352295
2023-04-26T08:47:22.859Z,68.371582
2023-04-26T08:48:31.568Z,67.150879
2023-04-26T08:49:40.227Z,67.150879
2023-04-26T08:50:50.262Z,66.223145
2023-04-26T08:51:59.818Z,67.889404
2023-04-26T08:53:08.563Z,68.121338
2023-04-26T08:54:18.240Z,67.028809
2023-04-26T08:55:27.943Z,68.054199
2023-04-26T08:56:37.701Z,68.023682
2023-04-26T08:57:46.434Z,69.146729
2023-04-26T08:58:56.152Z,68.701172
2023-04-26T09:00:05.944Z,66.967773
2023-04-26T09:01:13.613Z,68.164062
2023-04-26T09:02:23.494Z,67.41333
2023-04-26T09:03:32.225Z,67.822266
2023-04-26T09:04:40.868Z,66.833496
2023-04-26T09:05:49.421Z,66.497803
2023-04-26T09:06:59.176Z,66.833496
2023-04-26T09:08:08.884Z,68.231201
2023-04-26T09:09:17.593Z,67.315674
2023-04-26T09:10:27.289Z,67.41333
2023-04-26T09:11:35.996Z,66.021729
2023-04-26T09:12:45.716Z,66.424561
2023-04-26T09:13:55.400Z,66.833496
2023-04-26T09:15:05.069Z,67.547607
2023-04-26T09:16:14.753Z,67.211914
2023-04-26T09:17:22.521Z,66.699219
2023-04-26T09:18:31.229Z,65.783691
2023-04-26T09:19:40.963Z,65.344238
2023-04-26T09:20:49.615Z,66.467285
2023-04-26T09:21:59.299Z,65.344238
2023-04-26T09:23:08.082Z,65.216064
2023-04-26T09:24:16.758Z,65.826416
2023-04-26T09:25:26.440Z,64.904785
2023-04-26T09:26:36.147Z,64.935303
2023-04-26T09:27:44.813Z,64.904785
2023-04-26T09:28:54.603Z,65.386963
2023-04-26T09:30:03.239Z,64.0625
2023-04-26T09:31:10.938Z,64.569092
2023-04-26T09:32:20.637Z,63.861084
2023-04-26T09:33:29.311Z,64.398193
2023-04-26T09:34:37.993Z,64.703369
2023-04-26T09:35:46.755Z,64.764404
2023-04-26T09:36:55.497Z,65.582275
2023-04-26T09:39:15.983Z,65.856934
2023-04-26T09:40:24.696Z,65.447998
2023-04-26T09:41:34.435Z,65.52124
2023-04-26T09:42:43.160Z,64.471436
2023-04-26T09:43:52.985Z,64.367676
2023-04-26T09:45:02.701Z,64.367676
2023-04-26T09:46:12.405Z,64.135742
2023-04-26T09:47:22.166Z,63.696289
2023-04-26T09:48:31.793Z,63.421631
2023-04-26T09:49:40.511Z,62.579346
2023-04-26T09:50:50.181Z,61.968994
2023-04-26T09:51:59.923Z,61.791992
2023-04-26T09:53:09.675Z,63.012695
2023-04-26T09:54:19.393Z,62.17041
2023-04-26T09:55:34.545Z,61.529541
2023-04-26T09:56:39.690Z,62.139893
2023-04-26T09:57:47.398Z,62.780762
2023-04-26T09:58:56.098Z,63.696289
2023-04-26T10:00:05.753Z,63.665771
2023-04-26T10:01:14.493Z,64.001465
2023-04-26T10:02:24.303Z,62.780762
2023-04-26T10:03:33.147Z,63.391113
2023-04-26T10:04:41.751Z,62.982178
2023-04-26T10:05:51.467Z,62.139893
2023-04-26T10:07:00.158Z,62.414551
2023-04-26T10:08:08.851Z,62.719727
2023-04-26T10:09:18.542Z,61.633301
2023-04-26T10:10:28.263Z,61.688232
2023-04-26T10:11:38.370Z,63.043213
2023-04-26T10:12:46.691Z,63.348389
2023-04-26T10:13:55.444Z,64.031982
2023-04-26T10:15:05.168Z,63.928223
2023-04-26T10:16:12.856Z,63.623047
2023-04-26T10:17:21.681Z,62.738037
2023-04-26T10:18:31.346Z,63.726807
2023-04-26T10:19:41.098Z,63.378906
2023-04-26T10:20:49.910Z,64.672852
2023-04-26T10:21:58.621Z,63.043213
2023-04-26T10:23:08.305Z,62.255859
2023-04-26T10:24:18.080Z,62.286377
2023-04-26T10:25:26.763Z,63.305664
2023-04-26T10:26:35.658Z,63.482666
2023-04-26T10:27:45.244Z,63.513184
2023-04-26T10:28:57.266Z,62.493896
2023-04-26T10:30:04.606Z,63.201904
2023-04-26T10:31:13.338Z,61.572266
2023-04-26T10:32:22.994Z,62.591553
2023-04-26T10:33:32.674Z,62.255859
2023-04-26T10:34:40.383Z,61.92627
2023-04-26T10:35:48.036Z,63.146973
2023-04-26T10:36:57.741Z,62.811279
2023-04-26T10:38:07.410Z,61.865234
2023-04-26T10:39:17.155Z,62.579346
2023-04-26T10:40:26.850Z,61.383057
2023-04-26T10:41:35.542Z,62.097168
2023-04-26T10:42:45.387Z,61.486816
2023-04-26T10:43:53.998Z,61.077881
2023-04-26T10:45:00.591Z,60.717773
2023-04-26T10:46:10.334Z,60.180664
2023-04-26T10:47:20.070Z,60.455322
2023-04-26T10:48:29.768Z,60.906982
2023-04-26T10:49:38.430Z,60.852051
2023-04-26T10:50:47.098Z,58.636475
2023-04-26T10:51:56.783Z,57.269287
2023-04-26T10:53:05.164Z,57.312012
2023-04-26T10:54:12.921Z,56.152344
2023-04-26T10:55:24.323Z,55.24292
2023-04-26T10:56:32.571Z,52.941895
2023-04-26T10:57:42.304Z,52.539062
2023-04-26T10:58:51.169Z,52.636719
2023-04-26T11:00:00.730Z,52.539062
2023-04-26T11:01:10.415Z,52.893066
2023-04-26T11:02:20.124Z,52.996826
2023-04-26T11:03:28.958Z,51.074219
2023-04-26T11:04:37.542Z,50.671387
2023-04-26T11:05:46.207Z,51.373291
2023-04-26T11:06:54.925Z,51.397705
2023-04-26T11:08:04.641Z,53.015137
2023-04-26T11:09:13.363Z,53.80249
2023-04-26T11:10:22.099Z,52.130127
2023-04-26T11:11:31.776Z,50.537109
2023-04-26T11:12:40.478Z,52.91748
2023-04-26T11:13:50.188Z,52.844238
2023-04-26T11:14:58.880Z,52.386475
2023-04-26T11:16:07.547Z,51.708984
2023-04-26T11:17:17.264Z,50.170898
2023-04-26T11:18:24.963Z,49.145508
2023-04-26T11:19:32.657Z,48.260498
2023-04-26T11:20:42.325Z,48.944092
2023-04-26T11:21:52.200Z,47.711182
2023-04-26T11:23:01.687Z,48.010254
2023-04-26T11:24:10.409Z,48.236084
2023-04-26T11:25:20.091Z,48.55957
2023-04-26T11:26:29.796Z,49.414062
2023-04-26T11:27:38.490Z,49.737549
2023-04-26T11:28:48.207Z,50.042725
2023-04-26T11:29:57.871Z,50.976562
2023-04-26T11:31:06.621Z,53.320312
2023-04-26T11:32:15.234Z,52.539062
2023-04-26T11:33:24.954Z,52.13623
2023-04-26T11:34:34.635Z,52.233887
2023-04-26T11:35:45.322Z,53.070068
2023-04-26T11:36:53.015Z,54.077148
2023-04-26T11:38:02.731Z,52.69165
2023-04-26T11:39:14.133Z,53.320312
2023-04-26T11:40:21.296Z,53.344727
2023-04-26T11:41:30.025Z,53.369141
2023-04-26T11:42:38.703Z,54.156494
2023-04-26T11:43:48.383Z,53.448486
2023-04-26T11:44:58.056Z,54.711914
2023-04-26T11:46:07.768Z,52.91748
2023-04-26T11:47:17.453Z,52.69165
2023-04-26T11:48:27.140Z,52.105713
2023-04-26T11:49:35.804Z,52.130127
2023-04-26T11:50:45.605Z,52.563477
2023-04-26T11:51:55.263Z,52.532959
2023-04-26T11:53:03.943Z,53.851318
2023-04-26T11:54:13.591Z,53.930664
2023-04-26T11:55:21.301Z,54.107666
2023-04-26T11:56:30.010Z,54.919434
2023-04-26T11:57:39.713Z,55.853271
2023-04-26T11:58:48.394Z,56.738281
2023-04-26T11:59:58.077Z,56.970215
2023-04-26T12:01:07.762Z,57.373047
2023-04-26T12:02:16.481Z,57.958984
2023-04-26T12:03:26.281Z,57.525635
2023-04-26T12:04:34.915Z,56.402588
2023-04-26T12:05:43.502Z,56.506348
2023-04-26T12:06:53.189Z,55.57251
2023-04-26T12:08:01.885Z,55.36499
2023-04-26T12:09:10.555Z,54.382324
2023-04-26T12:10:19.265Z,53.723145
2023-04-26T12:11:27.941Z,53.955078
2023-04-26T12:12:37.620Z,54.156494
2023-04-26T12:13:47.324Z,56.207275
2023-04-26T12:14:55.004Z,54.35791
2023-04-26T12:16:07.267Z,54.437256
2023-04-26T12:17:14.394Z,55.145264
2023-04-26T12:18:24.085Z,56.005859
2023-04-26T12:19:32.867Z,56.384277
2023-04-26T12:20:41.498Z,57.196045
2023-04-26T12:21:51.185Z,57.037354
2023-04-26T12:22:59.836Z,55.493164
2023-04-26T12:24:08.511Z,54.992676
2023-04-26T12:25:18.197Z,52.539062
2023-04-26T12:26:27.884Z,50.823975
2023-04-26T12:27:36.661Z,50.152588
2023-04-26T12:28:44.368Z,49.621582
2023-04-26T12:29:54.164Z,50.280762
2023-04-26T12:31:03.846Z,47.943115
2023-04-26T12:32:13.492Z,45.489502
2023-04-26T12:33:21.227Z,45.831299
2023-04-26T12:34:30.882Z,46.057129
2023-04-26T12:35:39.651Z,47.991943
2023-04-26T12:36:49.274Z,48.748779
2023-04-26T12:37:58.963Z,46.77124
2023-04-26T12:39:07.708Z,44.586182
2023-04-26T12:40:16.421Z,44.20166
2023-04-26T12:41:24.102Z,45.20874
2023-04-26T12:42:31.785Z,43.780518
2023-04-26T12:43:41.456Z,44.708252
2023-04-26T12:44:50.245Z,45.227051
2023-04-26T12:45:59.005Z,47.052002
2023-04-26T12:47:06.626Z,49.414062
2023-04-26T12:48:16.648Z,51.098633
2023-04-26T12:49:26.028Z,52.435303
2023-04-26T12:50:34.760Z,52.764893
2023-04-26T12:51:43.468Z,52.789307
2023-04-26T12:52:53.222Z,53.930664
2023-04-26T12:54:02.893Z,53.24707
2023-04-26T12:55:11.624Z,54.309082
2023-04-26T12:56:20.336Z,54.107666
2023-04-26T12:57:29.024Z,53.851318
2023-04-26T12:58:38.717Z,55.450439
2023-04-26T12:59:47.432Z,54.333496
2023-04-26T13:00:56.140Z,53.649902
2023-04-26T13:02:05.854Z,53.546143
2023-04-26T13:03:15.045Z,52.990723
2023-04-26T13:04:24.344Z,52.69165
2023-04-26T13:05:33.102Z,54.180908
2023-04-26T13:06:41.784Z,52.539062
2023-04-26T13:07:50.472Z,51.153564
2023-04-26T13:09:00.140Z,49.56665
2023-04-26T13:10:09.565Z,48.815918
2023-04-26T13:11:18.508Z,47.460938
2023-04-26T13:12:27.185Z,47.564697